Terminal Aerodrome Forecast
Issued by NWS

Home | Current Version | Previous Version | Text Only | Print | Product List | Glossary On
Versions: 1 2 3 4 5 6 7 8 9 10 11 12 13 14
000
FTUS42 TJSJ 030500
TAFJMZ
TAF
TJMZ 030535Z 0306/0406 VRB04KT P6SM FEW040
     FM031500 27007KT P6SM SCT030
     FM031800 26008KT P6SM VCSH SCT030
     FM032200 06006KT P6SM SCT025 SCT040
      AMD NOT SKED TIL 031100=

USA.gov is the U.S. government's official web portal to all federal, state and local government web resources and services.